Logo AVAMET
Benvolgut visitant, si us plau, ingressa Recuperar contrasenya
AVAMET paisatges

San Pedro del Pinatar

Dades diàries. Acumulats / Últims 30 dies disponibles

Data Temperatura (°C) Humitat rel. (%) Pressió rel. (hPa) Vent (km/h) Precipitació
Mínima Mitjana Màxima Amplitud
tèrmica
Mínima Mitjana Màxima Mínima Mitjana Màxima Predom. Mitjana Ràfega
màxima
Total
(mm)
Índex-n
Mínima Mitjana Màxima Mínima Mitjana Màxima n
0 a 1
P0 max
mm 5'
Dades mensuals acumulades fins l'últim dia disponible
02/2020 7,3 10,8 14,9 14,5 14,2 18,8 27,4 20,1 12 65 91 1.017 1.028 1.037   9,5 56,3 1,6
Dades anuals acumulades fins l'últim dia disponible
2020 4,2 9,7 14,9 13,5 12,7 17,6 27,4 23,2 12 64 91 1.011 1.026 1.037   10,2 90,1 86,2
Últims 30 dies disponibles
27-02-2020 11,9     16,7     20,9 9,0 28 39 54 1.020 1.022 1.023 OSO 9,9 38,6 0,0
26-02-2020 14,9     18,4     23,2 8,3 12 36 60 1.019 1.020 1.022 ONO 14,7 56,3 0,0
25-02-2020 10,1     17,2     25,1 15,0 12 39 69 1.017 1.020 1.023 OSO 12,2 33,8 0,0
24-02-2020 7,3     12,8     19,5 12,2 36 58 79 1.024 1.028 1.033 OSO 7,5 25,7 0,0
23-02-2020 9,2     12,6     17,3 8,1 47 75 87 1.033 1.035 1.037 OSO 8,3 22,5 0,0
22-02-2020 8,4     11,8     15,0 6,6 76 81 85 1.032 1.034 1.036 SO 7,1 25,7 0,0
21-02-2020 8,8     12,0     14,9 6,1 69 79 85 1.028 1.031 1.033 SSO 9,4 27,4 0,0
20-02-2020 8,8     12,2     14,8 6,0 73 80 86 1.026 1.028 1.031 SSO 7,8 17,7 0,0
19-02-2020 11,1     14,2     15,9 4,8 72 80 86 1.031 1.032 1.034 E 8,2 20,9 0,0
18-02-2020 13,3     14,5     17,6 4,3 65 83 89 1.028 1.031 1.033 ENE 14,7 41,8 1,0
17-02-2020 10,6     14,3     19,9 9,3 65 81 91 1.025 1.027 1.028 OSO 11,5 30,6 0,2
16-02-2020 10,1     12,6     17,0 6,9 72 81 87 1.027 1.029 1.030 OSO 9,1 27,4 0,0
15-02-2020 8,8     12,8     15,7 6,9 72 79 89 1.026 1.028 1.030 SSO 6,0 24,1 0,0
14-02-2020 11,1     14,5     18,2 7,1 49 61 74 1.025 1.026 1.027 S 6,4 20,9 0,0
13-02-2020 11,9     14,7     19,3 7,4 54 69 78 1.023 1.025 1.026 OSO 8,7 27,4 0,0
12-02-2020 13,1     14,4     16,2 3,1 67 74 79 1.024 1.025 1.026 SSE 7,3 32,2 0,0
11-02-2020 11,8     16,1     22,2 10,4 45 60 74 1.022 1.026 1.029 SO 12,1 30,6 0,0
10-02-2020 9,8     14,4     20,4 10,6 41 59 71 1.029 1.032 1.034 OSO 12,6 32,2 0,0
09-02-2020 12,3     14,4     15,8 3,5 54 64 73 1.028 1.031 1.034 SSO 7,8 24,1 0,0
08-02-2020 8,6     12,8     18,0 9,4 55 67 74 1.025 1.027 1.028 OSO 8,4 24,1 0,0
07-02-2020 9,3     11,9     14,2 4,9 58 65 72 1.025 1.026 1.027 SO 8,0 19,3 0,0
06-02-2020 9,8     12,2     14,3 4,5 59 68 79 1.026 1.028 1.030 SSE 9,9 27,4 0,0
05-02-2020 10,9     14,3     16,2 5,3 58 65 75 1.028 1.030 1.032 E 12,8 35,4 0,4
04-02-2020 11,4     18,5     27,4 16,0 17 46 66 1.023 1.026 1.030 OSO 9,4 27,4 0,0
03-02-2020 12,1     15,9     21,0 8,9 47 60 68 1.029 1.030 1.031 SO 4,7 17,7 0,0
02-02-2020 13,6     17,7     22,8 9,2 42 55 67 1.028 1.029 1.031 OSO 10,7 27,4 0,0
01-02-2020 11,7     17,4     23,8 12,1 40 54 68 1.023 1.025 1.028 O 11,4 38,6 0,0
31-01-2020 12,3     16,9     21,9 9,6 37 52 72 1.023 1.024 1.026 O 11,3 37,0 0,0
30-01-2020 11,3     14,7     20,4 9,1 38 62 73 1.023 1.024 1.026 SO 7,7 24,1 0,0
29-01-2020 10,4     15,2     20,9 10,5 35 57 68 1.023 1.025 1.026 O 10,2 33,8 0,0
Últims 13 mesos disponibles
01/2020 4,2 8,4 12,3 12,3 12,7 16,2 21,9 17,7 50 62 74 1.014 1.024 1.031 OSO 11,0 90,1 84,6
12/2019 8,4 11,4 16,1 14,2 12,1 17,5 23,3 14,9 30 63 84 1.007 1.020 1.033 OSO 11,6 78,9 55,0
11/2019 7,6 11,0 13,2 14,4 15,5 18,4 23,8 16,2 34 50 86 1.002 1.014 1.021 OSO 12,0 74,0 13,0
Tots els anys disponibles
Temperatura (°C)
Humitat relativa (%)
Velocitat del vent i ràfega màxima (km/h)
Direcció del vent (°)
Pressió (hPa)
Precipitació (mm)
Nota sobre les dades: s'avisa a l'usuari de la provisionalitat i no oficialitat d'aquestes dades
Logo AVAMET blanc
Web allotjada a Sollutia
Llicència de Creative CommonsLa web d'AVAMET i els seus continguts estan subjectes a una llicència de
Reconeixement - No Comercial - Compartir igual
Últimes estacions:  Forcall (Ajuntament Soci), Sant Joanet (Soci), Marines (Soci), Vilallonga - Serpis (Soci), Sorita (AVAMET), Gorga (Soci) - - -